Time;durP1;ratioP1;P1;durP2;ratioP2;P2;SDS_P1;SDS_P2;PMS_P1;PMS_P2;Temp;Humidity;BMP_temperature;BMP_pressure;BME280_temperature;BME280_humidity;BME280_pressure;Samples;Min_cycle;Max_cycle;Signal;HPM_P1;HPM_P2
2021/01/16 00:01:08;;;;;;;19.35;15.30;;;2.50;99.90;;;;;;5049487;28;20445;-89
2021/01/16 00:03:35;;;;;;;20.50;16.25;;;2.40;99.90;;;;;;5050865;28;20219;-89
2021/01/16 00:06:03;;;;;;;20.25;15.95;;;2.40;99.90;;;;;;5051309;28;20238;-88
2021/01/16 00:08:31;;;;;;;19.60;15.43;;;2.40;99.90;;;;;;5051663;28;20199;-87
2021/01/16 00:11:00;;;;;;;17.33;14.30;;;2.40;99.90;;;;;;5051468;28;20207;-88
2021/01/16 00:13:27;;;;;;;24.87;16.60;;;2.40;99.90;;;;;;5049083;28;20929;-88
2021/01/16 00:15:54;;;;;;;25.35;17.58;;;2.40;99.90;;;;;;5047469;28;20452;-88
2021/01/16 00:18:58;;;;;;;19.60;15.20;;;2.40;99.90;;;;;;5054474;28;20199;-89
2021/01/16 00:38:46;;;;;;;20.33;15.67;;;2.30;99.90;;;;;;4748348;30;20786;-90
2021/01/16 00:41:12;;;;;;;20.35;15.93;;;2.30;99.90;;;;;;4781058;29;20465;-88
2021/01/16 00:43:39;;;;;;;22.33;16.90;;;2.30;99.90;;;;;;4918879;28;20233;-89
2021/01/16 00:46:06;;;;;;;21.23;16.00;;;2.40;99.90;;;;;;5001906;28;21139;-90
2021/01/16 00:48:32;;;;;;;21.50;15.50;;;2.30;99.90;;;;;;5031715;28;20221;-89
2021/01/16 00:50:59;;;;;;;22.48;17.35;;;2.30;99.90;;;;;;5031615;28;20222;-88
2021/01/16 00:53:25;;;;;;;22.00;15.20;;;2.30;99.90;;;;;;5036185;28;20222;-90
2021/01/16 00:55:54;;;;;;;21.13;15.65;;;2.30;99.90;;;;;;5051369;28;20200;-88
2021/01/16 00:58:21;;;;;;;21.03;15.90;;;2.30;99.90;;;;;;5051631;28;20241;-89
2021/01/16 01:00:50;;;;;;;23.67;17.42;;;2.30;99.90;;;;;;5051142;28;20503;-88
2021/01/16 01:03:17;;;;;;;20.33;15.50;;;2.30;99.90;;;;;;5051451;28;20212;-89
2021/01/16 01:05:45;;;;;;;20.43;15.83;;;2.30;99.90;;;;;;5051315;28;20675;-89
2021/01/16 01:08:11;;;;;;;20.90;16.20;;;2.30;99.90;;;;;;5050790;28;20548;-89
2021/01/16 01:10:42;;;;;;;22.00;17.33;;;2.30;99.90;;;;;;5051186;28;20207;-89
2021/01/16 01:13:11;;;;;;;22.33;15.95;;;2.30;99.90;;;;;;5051074;28;20211;-89
2021/01/16 01:15:39;;;;;;;23.90;16.90;;;2.30;99.90;;;;;;5052650;28;20302;-88
2021/01/16 01:18:07;;;;;;;22.67;15.73;;;2.30;99.90;;;;;;5055340;28;20640;-89
2021/01/16 01:20:33;;;;;;;24.98;17.30;;;2.30;99.90;;;;;;5055562;28;20924;-90
2021/01/16 01:23:00;;;;;;;25.13;16.60;;;2.30;99.90;;;;;;5055422;28;20207;-89
2021/01/16 01:25:26;;;;;;;21.30;15.85;;;2.30;99.90;;;;;;5054672;28;20477;-88
2021/01/16 01:27:55;;;;;;;23.45;16.52;;;2.30;99.90;;;;;;5055235;28;20619;-89
2021/01/16 01:30:26;;;;;;;26.23;16.33;;;2.30;99.90;;;;;;5055293;28;20218;-89
2021/01/16 01:32:53;;;;;;;21.70;15.60;;;2.30;99.90;;;;;;5055355;28;20596;-89
2021/01/16 01:35:21;;;;;;;20.70;17.73;;;2.30;99.90;;;;;;5054586;28;20474;-89
2021/01/16 01:37:50;;;;;;;24.40;17.23;;;2.20;99.90;;;;;;5054859;28;20216;-90
2021/01/16 01:40:18;;;;;;;27.38;18.77;;;2.20;99.90;;;;;;5055401;28;20258;-89
2021/01/16 01:42:47;;;;;;;24.88;17.10;;;2.20;99.90;;;;;;5054843;28;20205;-89
2021/01/16 01:45:14;;;;;;;22.27;16.33;;;2.20;99.90;;;;;;5054714;28;20223;-89
2021/01/16 01:47:44;;;;;;;22.90;16.88;;;2.20;99.90;;;;;;5054812;28;20517;-89
2021/01/16 01:50:18;;;;;;;28.80;17.03;;;2.30;99.90;;;;;;5054805;28;20211;-89
2021/01/16 01:52:48;;;;;;;22.95;16.10;;;2.20;99.90;;;;;;5054942;28;20943;-89
2021/01/16 01:55:17;;;;;;;27.20;17.77;;;2.20;99.90;;;;;;5054589;28;20669;-89
2021/01/16 01:57:45;;;;;;;25.45;18.45;;;2.20;99.90;;;;;;5054604;28;20212;-89
2021/01/16 02:00:37;;;;;;;24.70;17.25;;;2.20;99.90;;;;;;5054960;28;20207;-88
2021/01/16 02:17:02;;;;;;;25.63;18.38;;;2.10;99.90;;;;;;4935117;29;20294;-89
2021/01/16 02:27:19;;;;;;;26.05;16.85;;;2.10;99.90;;;;;;4903772;29;20224;-88
2021/01/16 02:29:46;;;;;;;27.75;18.35;;;2.10;99.90;;;;;;4954303;29;20202;-90
2021/01/16 02:32:16;;;;;;;26.85;18.70;;;2.10;99.90;;;;;;4980767;28;20206;-88
2021/01/16 02:34:47;;;;;;;23.25;17.60;;;2.20;99.90;;;;;;5045892;28;20230;-90
2021/01/16 02:37:35;;;;;;;29.95;19.77;;;2.20;99.90;;;;;;5054146;28;20204;-89
2021/01/16 02:40:16;;;;;;;26.15;18.35;;;2.20;99.90;;;;;;5053855;28;20222;-89
2021/01/16 02:42:56;;;;;;;32.80;18.83;;;2.10;99.90;;;;;;5054655;28;20295;-88
2021/01/16 02:45:27;;;;;;;23.70;17.33;;;2.10;99.90;;;;;;5033441;28;20315;-88
2021/01/16 02:48:06;;;;;;;28.77;17.80;;;2.10;99.90;;;;;;5033764;28;20228;-89
2021/01/16 02:50:42;;;;;;;29.25;17.88;;;2.10;99.90;;;;;;5052559;28;20204;-89
2021/01/16 02:53:18;;;;;;;24.60;18.38;;;2.10;99.90;;;;;;5053296;28;20664;-88
2021/01/16 02:59:14;;;;;;;25.83;17.33;;;2.10;99.90;;;;;;5041004;28;20281;-88
2021/01/16 03:01:43;;;;;;;26.67;17.48;;;2.10;99.90;;;;;;5053424;28;20333;-89
2021/01/16 03:04:36;;;;;;;24.55;18.10;;;2.10;99.90;;;;;;5053091;28;20222;-89
2021/01/16 03:34:21;;;;;;;28.05;18.17;;;2.00;99.90;;;;;;4716725;30;21332;-89
2021/01/16 04:03:52;;;;;;;27.40;18.10;;;2.00;99.90;;;;;;4726807;29;20241;-88
2021/01/16 04:06:19;;;;;;;31.25;18.95;;;2.00;99.90;;;;;;4822225;29;20299;-85
2021/01/16 04:08:46;;;;;;;26.95;17.25;;;2.00;99.90;;;;;;4913781;29;20260;-85
2021/01/16 04:11:12;;;;;;;29.02;19.38;;;2.00;99.90;;;;;;5015430;28;20274;-85
2021/01/16 04:13:38;;;;;;;32.00;20.10;;;2.00;99.90;;;;;;5049821;28;20215;-85
2021/01/16 04:16:06;;;;;;;30.00;18.80;;;1.90;99.90;;;;;;5051734;28;20286;-85
2021/01/16 04:18:32;;;;;;;30.05;19.35;;;2.00;99.90;;;;;;5052196;28;20208;-85
2021/01/16 04:20:58;;;;;;;29.60;20.35;;;2.10;99.90;;;;;;5052072;28;20212;-85
2021/01/16 04:23:25;;;;;;;28.33;19.23;;;2.00;99.90;;;;;;5051949;28;20709;-86
2021/01/16 05:45:09;;;;;;;29.27;18.17;;;2.00;99.90;;;;;;5048385;28;20273;-89
2021/01/16 05:47:36;;;;;;;29.47;19.17;;;2.10;99.90;;;;;;5050769;28;20470;-89
2021/01/16 05:50:04;;;;;;;27.20;19.07;;;2.00;99.90;;;;;;5050552;28;20449;-89
2021/01/16 05:52:31;;;;;;;27.88;19.20;;;2.00;99.90;;;;;;5051038;28;20435;-89
2021/01/16 05:54:59;;;;;;;25.20;17.55;;;2.00;99.90;;;;;;5050625;28;20240;-88
2021/01/16 05:57:26;;;;;;;27.33;19.45;;;2.00;99.90;;;;;;5050962;28;20245;-89
2021/01/16 05:59:58;;;;;;;27.03;19.73;;;2.10;99.90;;;;;;5050750;28;20234;-89
2021/01/16 06:02:29;;;;;;;31.17;20.90;;;2.10;99.90;;;;;;5053562;28;20488;-90
2021/01/16 06:04:56;;;;;;;30.27;18.30;;;2.10;99.90;;;;;;5054073;28;20501;-91
2021/01/16 06:07:23;;;;;;;30.90;20.20;;;2.10;99.90;;;;;;5054463;28;20510;-90
2021/01/16 06:09:50;;;;;;;33.45;21.27;;;2.10;99.90;;;;;;5054431;28;20200;-89
2021/01/16 06:12:18;;;;;;;27.93;20.07;;;2.10;99.90;;;;;;5054690;28;20199;-89
2021/01/16 06:14:45;;;;;;;26.42;19.23;;;2.00;99.90;;;;;;5053981;28;20473;-89
2021/01/16 06:17:13;;;;;;;28.10;18.90;;;2.00;99.90;;;;;;5053989;28;20257;-89
2021/01/16 06:19:44;;;;;;;27.88;19.30;;;1.90;99.90;;;;;;5054387;28;20967;-88
2021/01/16 06:22:12;;;;;;;30.90;21.10;;;1.90;99.90;;;;;;5054292;28;20672;-89
2021/01/16 06:24:39;;;;;;;27.67;18.00;;;2.00;99.90;;;;;;5054217;28;20470;-90
2021/01/16 06:27:06;;;;;;;29.00;20.45;;;1.90;99.90;;;;;;5054213;28;20359;-90
2021/01/16 06:29:34;;;;;;;29.73;20.30;;;1.90;99.90;;;;;;5054134;28;20290;-89
2021/01/16 06:32:05;;;;;;;30.30;20.25;;;1.90;99.90;;;;;;5053418;28;20200;-90
2021/01/16 06:34:33;;;;;;;35.83;21.90;;;1.90;99.90;;;;;;5053694;28;20276;-89
2021/01/16 06:37:09;;;;;;;30.17;20.33;;;1.90;99.90;;;;;;5053953;28;20744;-89
2021/01/16 06:39:38;;;;;;;29.30;19.90;;;2.00;99.90;;;;;;5054229;28;20205;-89
2021/01/16 06:42:08;;;;;;;28.53;19.30;;;2.00;99.90;;;;;;5054100;28;20458;-90
2021/01/16 06:44:34;;;;;;;33.23;20.80;;;2.00;99.90;;;;;;5053826;28;20489;-89
2021/01/16 06:47:01;;;;;;;29.07;20.17;;;2.10;99.90;;;;;;5053788;28;20496;-89
2021/01/16 06:49:29;;;;;;;28.55;19.30;;;2.10;99.90;;;;;;5053566;28;20451;-89
2021/01/16 06:51:57;;;;;;;31.40;22.10;;;2.00;99.90;;;;;;5054058;28;20222;-90
2021/01/16 06:54:25;;;;;;;27.05;19.98;;;2.00;99.90;;;;;;5056779;28;20478;-89
2021/01/16 06:57:05;;;;;;;33.97;20.80;;;2.00;99.90;;;;;;5066724;28;20198;-90
2021/01/16 06:59:32;;;;;;;28.27;20.20;;;2.00;99.90;;;;;;5053606;28;20446;-90
2021/01/16 07:01:58;;;;;;;33.13;19.60;;;2.00;99.90;;;;;;5052403;28;20446;-89
2021/01/16 07:04:27;;;;;;;33.40;20.50;;;2.00;99.90;;;;;;5053323;28;20471;-89
2021/01/16 07:06:55;;;;;;;30.38;19.98;;;2.00;99.90;;;;;;5053399;28;20474;-89
2021/01/16 07:09:22;;;;;;;32.83;22.80;;;2.00;99.90;;;;;;5053958;28;20203;-90
2021/01/16 07:11:52;;;;;;;35.23;19.63;;;1.90;99.90;;;;;;5053214;28;20456;-90
2021/01/16 07:14:19;;;;;;;32.40;22.10;;;2.00;99.90;;;;;;5053329;28;20476;-90
2021/01/16 07:16:46;;;;;;;28.58;18.95;;;2.00;99.90;;;;;;5053098;28;20449;-90
2021/01/16 07:19:20;;;;;;;32.47;20.92;;;2.00;99.90;;;;;;5053357;28;20204;-89
2021/01/16 07:21:46;;;;;;;32.13;20.33;;;2.00;99.90;;;;;;5053283;28;20691;-89
2021/01/16 07:24:12;;;;;;;31.92;19.58;;;2.10;99.90;;;;;;5053088;28;20523;-90
2021/01/16 07:26:40;;;;;;;31.77;21.80;;;2.10;99.90;;;;;;5052831;28;20240;-90
2021/01/16 07:29:08;;;;;;;31.13;21.53;;;2.10;99.90;;;;;;5052752;28;20450;-89
2021/01/16 07:31:37;;;;;;;26.90;20.03;;;2.10;99.90;;;;;;5053139;28;20451;-90
2021/01/16 07:34:04;;;;;;;32.40;21.80;;;2.20;99.90;;;;;;5053650;28;20542;-90
2021/01/16 07:36:31;;;;;;;29.50;19.37;;;2.20;99.90;;;;;;5053029;28;20623;-90
2021/01/16 07:39:02;;;;;;;30.97;20.83;;;2.10;99.90;;;;;;5052762;28;20443;-89
2021/01/16 07:41:31;;;;;;;25.77;18.90;;;2.10;99.90;;;;;;5041846;28;20513;-89
2021/01/16 07:44:09;;;;;;;29.73;20.15;;;2.10;99.90;;;;;;5041528;28;20238;-89
2021/01/16 07:46:36;;;;;;;32.33;20.17;;;2.10;99.90;;;;;;5041798;28;20221;-88
2021/01/16 07:49:04;;;;;;;29.45;20.10;;;2.10;99.90;;;;;;5042441;28;20440;-90
2021/01/16 07:51:33;;;;;;;30.60;19.90;;;2.10;99.90;;;;;;5041848;28;20210;-88
2021/01/16 07:54:02;;;;;;;34.33;22.70;;;2.10;99.90;;;;;;5044493;28;20224;-88
2021/01/16 07:56:36;;;;;;;27.70;20.02;;;2.10;99.90;;;;;;5041139;28;20948;-89
2021/01/16 07:59:22;;;;;;;31.40;19.80;;;2.10;99.90;;;;;;5040599;28;20233;-90
2021/01/16 08:02:26;;;;;;;27.40;18.98;;;2.20;99.90;;;;;;5042103;28;20196;-89
2021/01/16 08:05:03;;;;;;;30.48;20.23;;;2.20;99.90;;;;;;5041559;28;20642;-91
2021/01/16 08:07:52;;;;;;;28.38;19.25;;;2.20;99.90;;;;;;5041096;28;20277;-90
2021/01/16 08:10:20;;;;;;;30.13;20.45;;;2.10;99.90;;;;;;5042046;28;20203;-89
2021/01/16 08:12:51;;;;;;;28.08;20.73;;;2.20;99.90;;;;;;5041707;28;20197;-92
2021/01/16 08:15:18;;;;;;;28.70;20.20;;;2.10;99.90;;;;;;5043551;28;20217;-92
2021/01/16 08:17:47;;;;;;;34.33;22.43;;;2.10;99.90;;;;;;5043862;28;20593;-93
2021/01/16 08:20:19;;;;;;;32.10;20.25;;;2.20;99.90;;;;;;5045767;28;20446;-93
2021/01/16 08:22:51;;;;;;;33.22;21.33;;;2.20;99.90;;;;;;5044193;28;20189;-93
2021/01/16 08:25:21;;;;;;;29.67;20.45;;;2.20;99.90;;;;;;5040957;28;20291;-92
2021/01/16 08:27:49;;;;;;;30.55;20.80;;;2.20;99.90;;;;;;5046531;28;20213;-92
2021/01/16 08:30:18;;;;;;;32.20;21.25;;;2.30;99.90;;;;;;5045475;28;20200;-92
2021/01/16 08:32:56;;;;;;;27.07;19.77;;;2.40;99.90;;;;;;5043187;28;20693;-93
2021/01/16 08:35:24;;;;;;;28.65;20.00;;;2.40;99.90;;;;;;5037918;28;20464;-92
2021/01/16 08:37:51;;;;;;;28.50;19.08;;;2.40;99.90;;;;;;5037982;28;20191;-91
2021/01/16 08:40:32;;;;;;;30.17;20.00;;;2.40;99.90;;;;;;5042890;28;20204;-91
2021/01/16 08:42:59;;;;;;;26.95;18.73;;;2.50;99.90;;;;;;5041797;28;20216;-91
2021/01/16 08:45:26;;;;;;;30.65;21.02;;;2.40;99.90;;;;;;5038355;28;20231;-88
2021/01/16 08:47:55;;;;;;;31.55;20.55;;;2.40;99.90;;;;;;5039067;28;20223;-91
2021/01/16 08:50:22;;;;;;;29.17;20.80;;;2.40;99.90;;;;;;5041709;28;20214;-91
2021/01/16 08:52:48;;;;;;;30.98;20.85;;;2.40;99.90;;;;;;5040148;28;20502;-93
2021/01/16 08:55:15;;;;;;;28.75;22.67;;;2.40;99.90;;;;;;5043161;28;20253;-89
2021/01/16 08:57:43;;;;;;;31.97;22.20;;;2.40;99.90;;;;;;5042360;28;20639;-92
2021/01/16 09:00:17;;;;;;;31.60;22.10;;;2.40;99.90;;;;;;5048921;28;21100;-89
2021/01/16 09:03:05;;;;;;;33.35;21.88;;;2.40;99.90;;;;;;5049961;28;21371;-89
2021/01/16 09:05:33;;;;;;;32.38;22.02;;;2.50;99.90;;;;;;5041662;28;20195;-89
2021/01/16 09:08:01;;;;;;;30.10;20.77;;;2.40;99.90;;;;;;5041723;28;20260;-88
2021/01/16 09:10:31;;;;;;;32.83;22.42;;;2.40;99.90;;;;;;5040604;28;20200;-87
2021/01/16 09:12:59;;;;;;;34.85;23.27;;;2.40;99.90;;;;;;5040683;28;20204;-88
2021/01/16 09:15:27;;;;;;;30.90;21.90;;;2.40;99.90;;;;;;5040242;28;20257;-90
2021/01/16 09:18:06;;;;;;;30.00;21.55;;;2.40;99.90;;;;;;5040545;28;20198;-90
2021/01/16 09:20:35;;;;;;;33.00;23.10;;;2.30;99.90;;;;;;5041572;28;20208;-89
2021/01/16 09:23:24;;;;;;;32.25;22.30;;;2.30;99.90;;;;;;5040469;28;20665;-90
2021/01/16 09:25:52;;;;;;;33.20;22.50;;;2.20;99.90;;;;;;5040980;28;20624;-90
2021/01/16 09:28:49;;;;;;;29.73;22.42;;;2.20;99.90;;;;;;5040639;28;20228;-90
2021/01/16 09:31:19;;;;;;;35.20;24.40;;;2.20;99.90;;;;;;5040433;28;20219;-90
2021/01/16 09:33:48;;;;;;;35.55;23.27;;;2.20;99.90;;;;;;5041156;28;20223;-91
2021/01/16 09:36:37;;;;;;;33.67;22.98;;;2.30;99.90;;;;;;5044500;28;20190;-88
2021/01/16 09:39:36;;;;;;;30.38;21.35;;;2.20;99.90;;;;;;5048990;28;20198;-89
2021/01/16 09:42:20;;;;;;;32.53;24.08;;;2.10;99.90;;;;;;4973998;28;20198;-90
2021/01/16 09:44:53;;;;;;;35.65;22.45;;;2.10;99.90;;;;;;4991431;28;20654;-90
2021/01/16 09:47:56;;;;;;;35.05;20.88;;;2.10;99.90;;;;;;5044697;28;20699;-90
2021/01/16 09:50:27;;;;;;;29.08;19.85;;;2.10;99.90;;;;;;5045516;28;20197;-90
2021/01/16 09:52:57;;;;;;;32.78;22.88;;;2.20;99.90;;;;;;5044919;28;20210;-89
2021/01/16 09:55:31;;;;;;;32.30;21.73;;;2.20;99.90;;;;;;5045504;28;20596;-89
2021/01/16 09:57:57;;;;;;;36.92;22.60;;;2.30;99.90;;;;;;5043554;28;20545;-90
2021/01/16 10:00:29;;;;;;;27.98;20.10;;;2.30;99.90;;;;;;5043800;28;20283;-89
2021/01/16 10:03:00;;;;;;;34.15;22.75;;;2.40;99.90;;;;;;5044175;28;20211;-89
2021/01/16 10:05:33;;;;;;;33.73;21.70;;;2.40;99.90;;;;;;5043876;28;20238;-89
2021/01/16 10:08:00;;;;;;;35.00;23.33;;;2.50;99.90;;;;;;5046691;28;20583;-89
2021/01/16 10:10:27;;;;;;;35.88;22.80;;;2.50;99.90;;;;;;5045037;28;20200;-88
2021/01/16 10:12:58;;;;;;;34.00;24.85;;;2.50;99.90;;;;;;5044646;28;20661;-85
2021/01/16 10:15:34;;;;;;;34.47;23.50;;;2.70;99.90;;;;;;5042214;28;20587;-95
2021/01/16 10:18:05;;;;;;;35.15;23.52;;;2.80;99.90;;;;;;5043759;28;20248;-79
2021/01/16 10:20:33;;;;;;;30.73;21.50;;;3.00;99.90;;;;;;5044010;28;20250;-80
2021/01/16 10:23:04;;;;;;;30.20;21.40;;;3.10;99.90;;;;;;5043843;28;20460;-81
2021/01/16 10:25:39;;;;;;;33.88;22.10;;;3.10;99.90;;;;;;5043690;28;20513;-80
2021/01/16 10:28:06;;;;;;;30.23;21.58;;;3.10;99.90;;;;;;5043384;28;20307;-80
2021/01/16 10:30:33;;;;;;;30.57;20.60;;;3.10;99.90;;;;;;5043340;28;20197;-82
2021/01/16 10:33:00;;;;;;;29.53;22.70;;;3.20;99.90;;;;;;5045295;28;20456;-85
2021/01/16 10:35:28;;;;;;;34.35;24.02;;;3.30;99.90;;;;;;5043509;28;20846;-88
2021/01/16 10:37:58;;;;;;;28.80;20.90;;;3.30;99.90;;;;;;5045336;28;20193;-87
2021/01/16 10:40:24;;;;;;;27.27;19.17;;;3.30;99.90;;;;;;5043872;28;20455;-87
2021/01/16 10:42:52;;;;;;;28.73;22.33;;;3.30;99.90;;;;;;5045719;28;20494;-87
2021/01/16 10:45:20;;;;;;;24.47;19.27;;;3.30;99.90;;;;;;5043067;28;20471;-87
2021/01/16 10:47:48;;;;;;;31.77;20.57;;;3.40;99.90;;;;;;5042163;28;20466;-85
2021/01/16 10:50:16;;;;;;;26.07;20.27;;;3.50;99.90;;;;;;5043880;28;20435;-86
2021/01/16 10:52:43;;;;;;;27.30;20.67;;;3.60;99.90;;;;;;5043665;28;20497;-86
2021/01/16 10:55:12;;;;;;;23.13;18.40;;;3.70;99.90;;;;;;5044922;28;20507;-86
2021/01/16 10:57:47;;;;;;;24.50;19.60;;;3.70;99.90;;;;;;5043765;28;20428;-87
2021/01/16 11:00:18;;;;;;;27.37;19.97;;;3.80;99.90;;;;;;5043900;28;20521;-86
2021/01/16 11:02:47;;;;;;;25.10;18.90;;;3.90;99.90;;;;;;5043273;28;20440;-86
2021/01/16 11:05:26;;;;;;;23.33;17.80;;;3.70;99.90;;;;;;5042806;28;20538;-86
2021/01/16 11:07:59;;;;;;;25.40;18.60;;;3.60;99.90;;;;;;5046314;28;20503;-87
2021/01/16 11:10:34;;;;;;;21.17;18.43;;;3.60;99.90;;;;;;5044535;28;20531;-87
2021/01/16 11:13:24;;;;;;;24.20;18.87;;;3.60;99.90;;;;;;5044370;28;20442;-87
2021/01/16 11:15:55;;;;;;;22.97;18.80;;;3.70;99.90;;;;;;5042702;28;20482;-87
2021/01/16 11:18:30;;;;;;;22.53;16.83;;;3.70;99.90;;;;;;5043505;28;20445;-87
2021/01/16 11:21:06;;;;;;;25.60;18.75;;;3.70;99.90;;;;;;5042649;28;20464;-86
2021/01/16 11:23:54;;;;;;;25.95;18.42;;;3.80;99.90;;;;;;5042761;28;20277;-87
2021/01/16 11:26:21;;;;;;;23.70;18.50;;;3.80;99.90;;;;;;5042231;28;20321;-87
2021/01/16 11:28:52;;;;;;;26.83;17.87;;;3.80;99.90;;;;;;5041836;28;20488;-86
2021/01/16 11:31:31;;;;;;;22.73;19.07;;;3.80;99.90;;;;;;5042297;28;20432;-87
2021/01/16 11:34:25;;;;;;;24.03;19.07;;;3.90;99.90;;;;;;5042797;28;20474;-87
2021/01/16 11:36:56;;;;;;;25.73;18.13;;;3.90;99.90;;;;;;5042424;28;20475;-87
2021/01/16 11:39:45;;;;;;;25.40;19.23;;;4.00;99.90;;;;;;5042599;28;20949;-87
2021/01/16 11:42:13;;;;;;;26.77;18.80;;;4.20;99.90;;;;;;5042067;28;20465;-87
2021/01/16 11:44:54;;;;;;;24.30;18.80;;;4.10;99.90;;;;;;5041602;28;20492;-86
2021/01/16 11:47:21;;;;;;;25.47;19.87;;;4.10;99.90;;;;;;5040244;28;20484;-87
2021/01/16 11:49:48;;;;;;;24.50;18.00;;;4.00;99.90;;;;;;5040501;28;20436;-87
2021/01/16 11:52:15;;;;;;;22.60;16.83;;;4.00;99.90;;;;;;5042384;28;20444;-87
2021/01/16 11:54:42;;;;;;;25.70;19.60;;;4.00;99.90;;;;;;5042639;28;20468;-86
2021/01/16 11:57:10;;;;;;;23.47;17.10;;;4.00;99.90;;;;;;5041970;28;20444;-87
2021/01/16 11:59:39;;;;;;;24.30;18.33;;;4.00;99.90;;;;;;5041682;28;20487;-87
2021/01/16 12:02:07;;;;;;;25.37;18.47;;;3.90;99.90;;;;;;5041458;28;20964;-87
2021/01/16 12:04:34;;;;;;;23.63;18.80;;;3.90;99.90;;;;;;5040900;28;20449;-86
2021/01/16 12:07:00;;;;;;;22.70;18.87;;;3.60;99.90;;;;;;5042410;28;20486;-86
2021/01/16 12:09:29;;;;;;;26.80;21.07;;;3.60;99.90;;;;;;5042171;28;20502;-86
2021/01/16 12:11:57;;;;;;;27.13;19.63;;;3.40;99.90;;;;;;5042131;28;20474;-86
2021/01/16 12:14:34;;;;;;;24.60;19.80;;;3.40;99.90;;;;;;5044406;28;20515;-86
2021/01/16 12:17:05;;;;;;;25.60;20.07;;;3.40;99.90;;;;;;5040994;28;20519;-86
2021/01/16 12:19:33;;;;;;;24.83;18.23;;;3.40;99.90;;;;;;5041476;28;20429;-87
2021/01/16 12:22:03;;;;;;;27.03;19.30;;;3.40;99.90;;;;;;5041129;28;20443;-87
2021/01/16 12:24:30;;;;;;;24.23;19.00;;;3.50;99.90;;;;;;5040870;28;20456;-86
2021/01/16 12:26:59;;;;;;;27.08;19.95;;;3.50;99.90;;;;;;5040591;28;20477;-86
2021/01/16 12:29:39;;;;;;;24.17;18.37;;;3.50;99.90;;;;;;5041028;28;20208;-87
2021/01/16 12:32:09;;;;;;;21.10;17.30;;;3.40;99.90;;;;;;5041708;28;20497;-87
2021/01/16 12:34:45;;;;;;;24.27;18.67;;;3.50;99.90;;;;;;5040602;28;20467;-87
2021/01/16 12:37:12;;;;;;;25.00;18.50;;;3.40;99.90;;;;;;5040779;28;20431;-87
2021/01/16 12:39:39;;;;;;;26.55;18.55;;;3.50;99.90;;;;;;5042050;28;20450;-87
2021/01/16 12:42:06;;;;;;;25.67;19.75;;;3.50;99.90;;;;;;5040881;28;20654;-87
2021/01/16 12:44:32;;;;;;;23.73;19.03;;;3.60;99.90;;;;;;5040017;28;20233;-88
2021/01/16 12:46:59;;;;;;;28.02;19.40;;;3.60;99.90;;;;;;5040662;28;20857;-87
2021/01/16 12:49:28;;;;;;;26.93;18.17;;;3.60;99.90;;;;;;5040758;28;20204;-87
2021/01/16 12:51:54;;;;;;;23.53;17.70;;;3.70;99.90;;;;;;5040831;28;20446;-86
2021/01/16 12:54:20;;;;;;;22.37;17.57;;;3.70;99.90;;;;;;5040932;28;20467;-86
2021/01/16 12:56:48;;;;;;;19.90;15.93;;;3.80;99.90;;;;;;5040773;28;20441;-86
2021/01/16 12:59:15;;;;;;;21.00;16.33;;;3.80;99.90;;;;;;5041024;28;20432;-87
2021/01/16 13:01:45;;;;;;;22.00;17.03;;;3.70;99.90;;;;;;5041113;28;21008;-86
2021/01/16 13:04:12;;;;;;;18.30;15.80;;;3.70;99.90;;;;;;5041306;28;20985;-87
2021/01/16 13:06:40;;;;;;;21.08;16.15;;;3.70;99.90;;;;;;5040610;28;20503;-86
2021/01/16 13:09:07;;;;;;;22.17;16.50;;;3.60;99.90;;;;;;5042370;28;20213;-87
2021/01/16 13:11:34;;;;;;;25.03;17.33;;;3.70;99.90;;;;;;5046229;28;20448;-86
2021/01/16 13:14:03;;;;;;;24.77;18.70;;;3.60;99.90;;;;;;5046743;28;20560;-86
2021/01/16 13:16:45;;;;;;;24.97;17.90;;;3.60;99.90;;;;;;5047786;28;20520;-86
2021/01/16 13:19:14;;;;;;;25.07;19.00;;;3.60;99.90;;;;;;5048198;28;20934;-86
2021/01/16 13:21:47;;;;;;;24.50;18.37;;;3.60;99.90;;;;;;5047511;28;20444;-86
2021/01/16 13:24:22;;;;;;;24.73;19.77;;;3.60;99.90;;;;;;5048436;28;20479;-85
2021/01/16 13:26:48;;;;;;;27.60;20.93;;;3.70;99.90;;;;;;5046781;28;20574;-87
2021/01/16 13:29:18;;;;;;;28.67;20.07;;;3.60;99.90;;;;;;5048537;28;20837;-86
2021/01/16 13:31:45;;;;;;;25.47;18.33;;;3.60;99.90;;;;;;5047483;28;20429;-86
2021/01/16 13:34:14;;;;;;;25.63;20.60;;;3.60;99.90;;;;;;5046788;28;20463;-86
2021/01/16 13:36:42;;;;;;;24.60;19.07;;;3.70;99.90;;;;;;5047141;28;20452;-86
2021/01/16 13:39:14;;;;;;;30.20;20.70;;;3.70;99.90;;;;;;5047397;28;20451;-85
2021/01/16 13:41:46;;;;;;;21.73;17.97;;;3.70;99.90;;;;;;5047467;28;20464;-85
2021/01/16 13:44:19;;;;;;;26.47;20.83;;;3.90;99.90;;;;;;5047092;28;20471;-85
2021/01/16 13:46:48;;;;;;;27.40;20.07;;;4.00;99.90;;;;;;5046579;28;20442;-86
2021/01/16 13:49:25;;;;;;;25.37;20.27;;;4.00;99.90;;;;;;5047623;28;20458;-87
2021/01/16 13:52:03;;;;;;;25.53;18.80;;;4.10;99.90;;;;;;5046902;28;20495;-96
2021/01/16 13:54:32;;;;;;;24.20;18.97;;;3.90;99.90;;;;;;5046861;28;20486;-86
2021/01/16 13:56:58;;;;;;;26.77;18.83;;;3.90;99.90;;;;;;5046772;28;20440;-87
2021/01/16 13:59:26;;;;;;;26.23;18.73;;;3.80;99.90;;;;;;5047313;28;20450;-87
2021/01/16 14:01:53;;;;;;;28.07;20.97;;;3.80;99.90;;;;;;5046924;28;20864;-87
2021/01/16 14:04:20;;;;;;;26.57;19.00;;;3.80;99.90;;;;;;5047138;28;20554;-86
2021/01/16 14:06:48;;;;;;;22.90;19.80;;;3.70;99.90;;;;;;5047115;28;20451;-86
2021/01/16 14:09:23;;;;;;;27.03;20.37;;;3.60;99.90;;;;;;5046531;28;20530;-86
2021/01/16 14:11:50;;;;;;;28.33;19.23;;;3.60;99.90;;;;;;5046137;28;20927;-86
2021/01/16 14:14:31;;;;;;;29.87;21.40;;;3.50;99.90;;;;;;5046292;28;20467;-86
2021/01/16 14:17:19;;;;;;;28.23;20.87;;;3.40;99.90;;;;;;5046847;28;20500;-86
2021/01/16 14:19:56;;;;;;;29.73;21.33;;;3.40;99.90;;;;;;5042849;28;20452;-86
2021/01/16 14:22:36;;;;;;;24.70;18.30;;;3.40;99.90;;;;;;5044071;28;20458;-85
2021/01/16 14:25:05;;;;;;;26.73;20.13;;;3.30;99.90;;;;;;5043998;28;20462;-86
2021/01/16 14:27:42;;;;;;;22.20;17.53;;;3.20;99.90;;;;;;5043034;28;20483;-86
2021/01/16 14:30:10;;;;;;;26.50;21.17;;;3.20;99.90;;;;;;5042696;28;20453;-88
2021/01/16 14:32:37;;;;;;;23.80;19.07;;;3.20;99.90;;;;;;5042169;28;20440;-88
2021/01/16 14:35:04;;;;;;;24.40;18.40;;;3.10;99.90;;;;;;5042985;28;20471;-88
2021/01/16 14:37:32;;;;;;;27.27;19.43;;;3.10;99.90;;;;;;5044571;28;20969;-86
2021/01/16 14:39:58;;;;;;;23.70;18.00;;;3.00;99.90;;;;;;5043672;28;21034;-86
2021/01/16 14:42:25;;;;;;;24.60;17.63;;;3.00;99.90;;;;;;5043837;28;20437;-87
2021/01/16 14:45:01;;;;;;;23.93;18.80;;;3.00;99.90;;;;;;5041903;28;20483;-87
2021/01/16 14:47:29;;;;;;;26.23;19.73;;;3.00;99.90;;;;;;5040833;28;20485;-87
2021/01/16 14:50:03;;;;;;;24.40;19.27;;;3.00;99.90;;;;;;5049222;28;20460;-85
2021/01/16 14:52:33;;;;;;;25.40;19.07;;;3.00;99.90;;;;;;5040049;28;20448;-90
2021/01/16 14:55:00;;;;;;;26.02;19.40;;;2.90;99.90;;;;;;5041861;28;20471;-86
2021/01/16 14:57:39;;;;;;;25.73;18.93;;;2.80;99.90;;;;;;5041677;28;20200;-86
2021/01/16 15:00:23;;;;;;;39.07;26.83;;;2.90;99.90;;;;;;5042362;28;20600;-86
2021/01/16 15:03:00;;;;;;;39.53;27.30;;;2.80;99.90;;;;;;5043557;28;20520;-91
2021/01/16 15:05:28;;;;;;;26.27;19.37;;;2.80;99.90;;;;;;5042086;28;20794;-82
2021/01/16 15:08:05;;;;;;;23.42;17.88;;;2.80;99.90;;;;;;5040743;28;20485;-85
2021/01/16 15:10:33;;;;;;;20.95;16.90;;;2.70;99.90;;;;;;5042923;28;20210;-85
2021/01/16 15:13:00;;;;;;;21.52;16.63;;;2.70;99.90;;;;;;5041183;28;20205;-86
2021/01/16 15:15:29;;;;;;;22.27;17.38;;;2.70;99.90;;;;;;5041126;28;20698;-85
2021/01/16 15:17:57;;;;;;;24.07;17.53;;;2.60;99.90;;;;;;5042809;28;20195;-83
2021/01/16 15:20:23;;;;;;;21.30;15.20;;;2.60;99.90;;;;;;5041929;28;20756;-84
2021/01/16 15:22:49;;;;;;;21.43;16.57;;;2.60;99.90;;;;;;5040716;28;20453;-84
2021/01/16 15:25:16;;;;;;;23.50;16.83;;;2.50;99.90;;;;;;5042804;28;20800;-84
2021/01/16 15:27:42;;;;;;;22.07;18.47;;;2.50;99.90;;;;;;5041474;28;20209;-82
2021/01/16 15:30:10;;;;;;;23.83;17.30;;;2.50;99.90;;;;;;5040927;28;20465;-85
2021/01/16 15:32:37;;;;;;;22.77;17.23;;;2.50;99.90;;;;;;5041218;28;20446;-89
2021/01/16 15:35:05;;;;;;;28.17;20.97;;;2.50;99.90;;;;;;5041363;28;20223;-86
2021/01/16 15:37:31;;;;;;;31.40;17.23;;;2.40;99.90;;;;;;5041124;28;20438;-87
2021/01/16 15:39:58;;;;;;;29.35;19.58;;;2.40;99.90;;;;;;5042341;28;20435;-87
2021/01/16 15:42:26;;;;;;;29.53;19.67;;;2.40;99.90;;;;;;5042567;28;20362;-86
2021/01/16 15:45:00;;;;;;;20.33;16.00;;;2.30;99.90;;;;;;5044050;28;20474;-88
2021/01/16 15:47:39;;;;;;;24.90;17.20;;;2.20;99.90;;;;;;5043913;28;20216;-88
2021/01/16 15:50:06;;;;;;;22.00;16.90;;;2.10;99.90;;;;;;5044268;28;20473;-87